sensor_id;sensor_type;location;lat;lon;timestamp;P1;durP1;ratioP1;P2;durP2;ratioP2
40951;SDS011;26682;51.660;19.338;2022-12-11T00:01:07;58.27;;;26.87;;
40951;SDS011;26682;51.660;19.338;2022-12-11T00:02:59;54.30;;;28.08;;
40951;SDS011;26682;51.660;19.338;2022-12-11T00:04:47;86.22;;;37.95;;
40951;SDS011;26682;51.660;19.338;2022-12-11T00:06:34;70.45;;;34.15;;
40951;SDS011;26682;51.660;19.338;2022-12-11T00:08:21;56.22;;;29.08;;
40951;SDS011;26682;51.660;19.338;2022-12-11T00:10:08;68.32;;;32.78;;
40951;SDS011;26682;51.660;19.338;2022-12-11T00:11:55;68.55;;;31.58;;
40951;SDS011;26682;51.660;19.338;2022-12-11T00:13:43;80.80;;;39.45;;
40951;SDS011;26682;51.660;19.338;2022-12-11T00:15:30;83.40;;;40.53;;
40951;SDS011;26682;51.660;19.338;2022-12-11T00:17:17;68.53;;;32.67;;
40951;SDS011;26682;51.660;19.338;2022-12-11T00:19:04;65.75;;;33.38;;
40951;SDS011;26682;51.660;19.338;2022-12-11T00:20:51;66.85;;;32.88;;
40951;SDS011;26682;51.660;19.338;2022-12-11T00:22:39;67.50;;;34.58;;
40951;SDS011;26682;51.660;19.338;2022-12-11T00:24:26;58.58;;;27.20;;
40951;SDS011;26682;51.660;19.338;2022-12-11T00:26:14;54.43;;;28.30;;
40951;SDS011;26682;51.660;19.338;2022-12-11T00:28:01;59.90;;;29.67;;
40951;SDS011;26682;51.660;19.338;2022-12-11T00:29:48;67.72;;;33.72;;
40951;SDS011;26682;51.660;19.338;2022-12-11T00:31:35;61.58;;;30.05;;
40951;SDS011;26682;51.660;19.338;2022-12-11T00:33:22;63.43;;;31.43;;
40951;SDS011;26682;51.660;19.338;2022-12-11T00:35:12;61.40;;;29.42;;
40951;SDS011;26682;51.660;19.338;2022-12-11T00:36:59;58.97;;;30.57;;
40951;SDS011;26682;51.660;19.338;2022-12-11T00:38:47;62.53;;;31.95;;
40951;SDS011;26682;51.660;19.338;2022-12-11T00:40:35;53.90;;;28.38;;
40951;SDS011;26682;51.660;19.338;2022-12-11T00:42:23;62.05;;;31.85;;
40951;SDS011;26682;51.660;19.338;2022-12-11T00:44:10;68.00;;;33.33;;
40951;SDS011;26682;51.660;19.338;2022-12-11T00:45:57;67.32;;;34.22;;
40951;SDS011;26682;51.660;19.338;2022-12-11T00:47:44;57.42;;;29.05;;
40951;SDS011;26682;51.660;19.338;2022-12-11T00:49:31;70.00;;;35.30;;
40951;SDS011;26682;51.660;19.338;2022-12-11T00:51:18;68.68;;;35.17;;
40951;SDS011;26682;51.660;19.338;2022-12-11T00:53:05;71.73;;;35.47;;
40951;SDS011;26682;51.660;19.338;2022-12-11T00:54:53;70.47;;;34.33;;
40951;SDS011;26682;51.660;19.338;2022-12-11T00:56:40;64.13;;;32.75;;
40951;SDS011;26682;51.660;19.338;2022-12-11T00:58:27;66.20;;;32.97;;
40951;SDS011;26682;51.660;19.338;2022-12-11T01:00:14;66.80;;;33.93;;
40951;SDS011;26682;51.660;19.338;2022-12-11T01:02:02;64.03;;;33.30;;
40951;SDS011;26682;51.660;19.338;2022-12-11T01:03:49;43.00;;;21.47;;
40951;SDS011;26682;51.660;19.338;2022-12-11T01:05:37;60.25;;;30.58;;
40951;SDS011;26682;51.660;19.338;2022-12-11T01:07:25;60.05;;;30.98;;
40951;SDS011;26682;51.660;19.338;2022-12-11T01:09:12;63.70;;;31.30;;
40951;SDS011;26682;51.660;19.338;2022-12-11T01:11:18;60.35;;;29.15;;
40951;SDS011;26682;51.660;19.338;2022-12-11T01:13:06;59.67;;;30.40;;
40951;SDS011;26682;51.660;19.338;2022-12-11T01:14:53;57.87;;;30.17;;
40951;SDS011;26682;51.660;19.338;2022-12-11T01:16:40;62.17;;;31.38;;
40951;SDS011;26682;51.660;19.338;2022-12-11T01:18:28;61.05;;;30.23;;
40951;SDS011;26682;51.660;19.338;2022-12-11T01:20:15;62.30;;;33.40;;
40951;SDS011;26682;51.660;19.338;2022-12-11T01:22:03;64.55;;;33.10;;
40951;SDS011;26682;51.660;19.338;2022-12-11T01:23:50;67.47;;;33.15;;
40951;SDS011;26682;51.660;19.338;2022-12-11T01:25:38;68.45;;;33.40;;
40951;SDS011;26682;51.660;19.338;2022-12-11T01:27:25;62.08;;;31.73;;
40951;SDS011;26682;51.660;19.338;2022-12-11T01:29:12;63.50;;;33.28;;
40951;SDS011;26682;51.660;19.338;2022-12-11T01:30:59;70.17;;;33.83;;
40951;SDS011;26682;51.660;19.338;2022-12-11T01:32:46;68.60;;;33.50;;
40951;SDS011;26682;51.660;19.338;2022-12-11T01:34:34;75.70;;;34.83;;
40951;SDS011;26682;51.660;19.338;2022-12-11T01:36:21;81.20;;;39.03;;
40951;SDS011;26682;51.660;19.338;2022-12-11T01:38:09;77.82;;;39.03;;
40951;SDS011;26682;51.660;19.338;2022-12-11T01:39:56;61.95;;;30.20;;
40951;SDS011;26682;51.660;19.338;2022-12-11T01:41:43;54.22;;;29.58;;
40951;SDS011;26682;51.660;19.338;2022-12-11T01:43:30;61.00;;;29.52;;
40951;SDS011;26682;51.660;19.338;2022-12-11T01:47:12;60.53;;;30.40;;
40951;SDS011;26682;51.660;19.338;2022-12-11T01:49:00;57.42;;;30.52;;
40951;SDS011;26682;51.660;19.338;2022-12-11T01:50:51;61.03;;;31.63;;
40951;SDS011;26682;51.660;19.338;2022-12-11T01:52:40;54.97;;;28.38;;
40951;SDS011;26682;51.660;19.338;2022-12-11T01:54:30;59.83;;;30.67;;
40951;SDS011;26682;51.660;19.338;2022-12-11T01:56:17;55.67;;;30.00;;
40951;SDS011;26682;51.660;19.338;2022-12-11T01:58:05;59.63;;;31.63;;
40951;SDS011;26682;51.660;19.338;2022-12-11T01:59:53;54.33;;;28.52;;
40951;SDS011;26682;51.660;19.338;2022-12-11T02:03:33;59.20;;;29.73;;
40951;SDS011;26682;51.660;19.338;2022-12-11T02:05:20;57.22;;;28.33;;
40951;SDS011;26682;51.660;19.338;2022-12-11T02:07:08;54.42;;;27.33;;
40951;SDS011;26682;51.660;19.338;2022-12-11T02:08:55;59.60;;;30.33;;
40951;SDS011;26682;51.660;19.338;2022-12-11T02:12:41;55.45;;;28.85;;
40951;SDS011;26682;51.660;19.338;2022-12-11T02:14:38;59.72;;;30.42;;
40951;SDS011;26682;51.660;19.338;2022-12-11T02:16:40;56.63;;;30.67;;
40951;SDS011;26682;51.660;19.338;2022-12-11T02:27:44;63.25;;;31.42;;
40951;SDS011;26682;51.660;19.338;2022-12-11T02:29:35;59.10;;;30.60;;
40951;SDS011;26682;51.660;19.338;2022-12-11T02:31:33;59.08;;;30.23;;
40951;SDS011;26682;51.660;19.338;2022-12-11T02:33:35;57.00;;;27.88;;
40951;SDS011;26682;51.660;19.338;2022-12-11T02:35:30;62.88;;;31.08;;
40951;SDS011;26682;51.660;19.338;2022-12-11T02:37:24;56.53;;;30.30;;
40951;SDS011;26682;51.660;19.338;2022-12-11T02:39:15;53.17;;;27.13;;
40951;SDS011;26682;51.660;19.338;2022-12-11T02:41:04;49.13;;;25.60;;
40951;SDS011;26682;51.660;19.338;2022-12-11T02:42:53;45.08;;;24.73;;
40951;SDS011;26682;51.660;19.338;2022-12-11T02:44:43;52.72;;;27.08;;
40951;SDS011;26682;51.660;19.338;2022-12-11T02:46:32;50.88;;;26.65;;
40951;SDS011;26682;51.660;19.338;2022-12-11T02:48:20;53.20;;;28.10;;
40951;SDS011;26682;51.660;19.338;2022-12-11T02:50:10;53.30;;;29.27;;
40951;SDS011;26682;51.660;19.338;2022-12-11T02:52:01;56.60;;;29.58;;
40951;SDS011;26682;51.660;19.338;2022-12-11T02:53:50;56.13;;;30.45;;
40951;SDS011;26682;51.660;19.338;2022-12-11T02:55:42;64.00;;;31.00;;
40951;SDS011;26682;51.660;19.338;2022-12-11T02:59:27;68.18;;;34.63;;
40951;SDS011;26682;51.660;19.338;2022-12-11T03:01:18;66.93;;;32.67;;
40951;SDS011;26682;51.660;19.338;2022-12-11T03:03:05;72.57;;;36.05;;
40951;SDS011;26682;51.660;19.338;2022-12-11T03:04:53;72.65;;;34.78;;
40951;SDS011;26682;51.660;19.338;2022-12-11T03:06:45;71.07;;;33.65;;
40951;SDS011;26682;51.660;19.338;2022-12-11T03:08:36;70.88;;;33.47;;
40951;SDS011;26682;51.660;19.338;2022-12-11T03:10:24;64.17;;;31.37;;
40951;SDS011;26682;51.660;19.338;2022-12-11T03:12:12;63.53;;;30.52;;
40951;SDS011;26682;51.660;19.338;2022-12-11T03:14:03;59.20;;;28.52;;
40951;SDS011;26682;51.660;19.338;2022-12-11T03:16:07;61.35;;;30.65;;
40951;SDS011;26682;51.660;19.338;2022-12-11T03:18:15;62.33;;;30.13;;
40951;SDS011;26682;51.660;19.338;2022-12-11T03:22:00;64.65;;;31.73;;
40951;SDS011;26682;51.660;19.338;2022-12-11T03:26:09;68.35;;;31.88;;
40951;SDS011;26682;51.660;19.338;2022-12-11T03:28:09;63.33;;;30.08;;
40951;SDS011;26682;51.660;19.338;2022-12-11T03:30:07;64.03;;;30.63;;
40951;SDS011;26682;51.660;19.338;2022-12-11T03:31:59;60.67;;;31.25;;
40951;SDS011;26682;51.660;19.338;2022-12-11T03:33:52;61.45;;;29.63;;
40951;SDS011;26682;51.660;19.338;2022-12-11T03:35:41;56.72;;;28.48;;
40951;SDS011;26682;51.660;19.338;2022-12-11T03:37:33;66.43;;;33.38;;
40951;SDS011;26682;51.660;19.338;2022-12-11T03:39:27;63.00;;;32.33;;
40951;SDS011;26682;51.660;19.338;2022-12-11T03:41:22;65.35;;;29.42;;
40951;SDS011;26682;51.660;19.338;2022-12-11T03:43:12;56.55;;;27.42;;
40951;SDS011;26682;51.660;19.338;2022-12-11T03:45:01;63.60;;;31.50;;
40951;SDS011;26682;51.660;19.338;2022-12-11T03:46:50;69.85;;;32.95;;
40951;SDS011;26682;51.660;19.338;2022-12-11T03:48:39;67.40;;;32.47;;
40951;SDS011;26682;51.660;19.338;2022-12-11T03:50:30;63.55;;;29.95;;
40951;SDS011;26682;51.660;19.338;2022-12-11T03:52:19;58.75;;;29.38;;
40951;SDS011;26682;51.660;19.338;2022-12-11T03:55:56;124.97;;;44.92;;
40951;SDS011;26682;51.660;19.338;2022-12-11T03:57:44;95.45;;;35.95;;
40951;SDS011;26682;51.660;19.338;2022-12-11T03:59:31;250.97;;;87.50;;
40951;SDS011;26682;51.660;19.338;2022-12-11T04:01:19;159.32;;;58.45;;
40951;SDS011;26682;51.660;19.338;2022-12-11T04:03:06;132.63;;;53.78;;
40951;SDS011;26682;51.660;19.338;2022-12-11T04:05:00;147.13;;;60.40;;
40951;SDS011;26682;51.660;19.338;2022-12-11T04:06:47;106.22;;;45.20;;
40951;SDS011;26682;51.660;19.338;2022-12-11T04:08:34;90.03;;;42.17;;
40951;SDS011;26682;51.660;19.338;2022-12-11T04:10:21;96.70;;;45.60;;
40951;SDS011;26682;51.660;19.338;2022-12-11T04:12:08;79.60;;;37.53;;
40951;SDS011;26682;51.660;19.338;2022-12-11T04:13:55;82.72;;;38.88;;
40951;SDS011;26682;51.660;19.338;2022-12-11T04:16:09;67.38;;;34.58;;
40951;SDS011;26682;51.660;19.338;2022-12-11T04:17:56;58.05;;;25.73;;
40951;SDS011;26682;51.660;19.338;2022-12-11T04:20:02;68.63;;;31.67;;
40951;SDS011;26682;51.660;19.338;2022-12-11T04:22:10;67.25;;;31.33;;
40951;SDS011;26682;51.660;19.338;2022-12-11T04:24:18;64.95;;;30.02;;
40951;SDS011;26682;51.660;19.338;2022-12-11T04:26:07;69.05;;;32.67;;
40951;SDS011;26682;51.660;19.338;2022-12-11T04:27:55;67.25;;;32.92;;
40951;SDS011;26682;51.660;19.338;2022-12-11T04:29:43;65.63;;;31.83;;
40951;SDS011;26682;51.660;19.338;2022-12-11T04:31:30;69.25;;;31.50;;
40951;SDS011;26682;51.660;19.338;2022-12-11T04:33:17;65.17;;;32.83;;
40951;SDS011;26682;51.660;19.338;2022-12-11T04:35:05;64.80;;;31.77;;
40951;SDS011;26682;51.660;19.338;2022-12-11T04:36:54;60.83;;;30.42;;
40951;SDS011;26682;51.660;19.338;2022-12-11T04:38:41;70.30;;;32.85;;
40951;SDS011;26682;51.660;19.338;2022-12-11T04:40:28;65.50;;;31.60;;
40951;SDS011;26682;51.660;19.338;2022-12-11T04:42:15;49.58;;;24.73;;
40951;SDS011;26682;51.660;19.338;2022-12-11T04:44:03;45.58;;;23.33;;
40951;SDS011;26682;51.660;19.338;2022-12-11T04:45:50;65.75;;;30.00;;
40951;SDS011;26682;51.660;19.338;2022-12-11T04:47:54;64.03;;;29.90;;
40951;SDS011;26682;51.660;19.338;2022-12-11T04:49:41;62.23;;;31.73;;
40951;SDS011;26682;51.660;19.338;2022-12-11T04:51:28;62.38;;;31.05;;
40951;SDS011;26682;51.660;19.338;2022-12-11T04:53:15;61.15;;;30.48;;
40951;SDS011;26682;51.660;19.338;2022-12-11T04:55:03;63.37;;;31.93;;
40951;SDS011;26682;51.660;19.338;2022-12-11T04:56:51;65.05;;;35.10;;
40951;SDS011;26682;51.660;19.338;2022-12-11T04:58:39;65.75;;;34.53;;
40951;SDS011;26682;51.660;19.338;2022-12-11T05:00:27;62.65;;;33.28;;
40951;SDS011;26682;51.660;19.338;2022-12-11T05:02:14;48.77;;;24.67;;
40951;SDS011;26682;51.660;19.338;2022-12-11T05:05:49;58.10;;;29.83;;
40951;SDS011;26682;51.660;19.338;2022-12-11T05:07:39;56.05;;;30.35;;
40951;SDS011;26682;51.660;19.338;2022-12-11T05:11:14;60.05;;;31.10;;
40951;SDS011;26682;51.660;19.338;2022-12-11T05:13:01;58.95;;;31.42;;
40951;SDS011;26682;51.660;19.338;2022-12-11T05:14:52;60.40;;;31.63;;
40951;SDS011;26682;51.660;19.338;2022-12-11T05:16:39;60.80;;;34.25;;
40951;SDS011;26682;51.660;19.338;2022-12-11T05:18:26;62.63;;;34.37;;
40951;SDS011;26682;51.660;19.338;2022-12-11T05:20:14;65.88;;;35.58;;
40951;SDS011;26682;51.660;19.338;2022-12-11T05:22:01;64.97;;;34.88;;
40951;SDS011;26682;51.660;19.338;2022-12-11T05:23:48;63.03;;;36.10;;
40951;SDS011;26682;51.660;19.338;2022-12-11T05:25:35;69.28;;;34.60;;
40951;SDS011;26682;51.660;19.338;2022-12-11T05:27:22;67.17;;;34.57;;
40951;SDS011;26682;51.660;19.338;2022-12-11T05:29:09;62.17;;;33.85;;
40951;SDS011;26682;51.660;19.338;2022-12-11T05:30:57;63.72;;;33.83;;
40951;SDS011;26682;51.660;19.338;2022-12-11T05:32:47;60.92;;;36.15;;
40951;SDS011;26682;51.660;19.338;2022-12-11T05:34:34;56.70;;;32.60;;
40951;SDS011;26682;51.660;19.338;2022-12-11T05:36:23;64.53;;;35.53;;
40951;SDS011;26682;51.660;19.338;2022-12-11T05:38:12;62.42;;;35.47;;
40951;SDS011;26682;51.660;19.338;2022-12-11T05:39:59;56.70;;;30.77;;
40951;SDS011;26682;51.660;19.338;2022-12-11T05:41:47;55.90;;;32.38;;
40951;SDS011;26682;51.660;19.338;2022-12-11T05:43:34;61.13;;;34.63;;
40951;SDS011;26682;51.660;19.338;2022-12-11T05:45:21;63.78;;;35.47;;
40951;SDS011;26682;51.660;19.338;2022-12-11T05:47:09;49.72;;;27.05;;
40951;SDS011;26682;51.660;19.338;2022-12-11T05:48:57;63.20;;;34.45;;
40951;SDS011;26682;51.660;19.338;2022-12-11T05:50:56;67.05;;;37.00;;
40951;SDS011;26682;51.660;19.338;2022-12-11T05:52:47;65.82;;;34.83;;
40951;SDS011;26682;51.660;19.338;2022-12-11T05:54:34;57.00;;;33.28;;
40951;SDS011;26682;51.660;19.338;2022-12-11T05:56:23;63.28;;;37.40;;
40951;SDS011;26682;51.660;19.338;2022-12-11T05:58:14;61.78;;;36.75;;
40951;SDS011;26682;51.660;19.338;2022-12-11T06:00:02;63.67;;;36.55;;
40951;SDS011;26682;51.660;19.338;2022-12-11T06:01:51;62.20;;;35.85;;
40951;SDS011;26682;51.660;19.338;2022-12-11T06:03:38;60.47;;;34.92;;
40951;SDS011;26682;51.660;19.338;2022-12-11T06:05:25;61.95;;;36.40;;
40951;SDS011;26682;51.660;19.338;2022-12-11T06:07:12;66.47;;;37.70;;
40951;SDS011;26682;51.660;19.338;2022-12-11T06:09:00;67.57;;;40.05;;
40951;SDS011;26682;51.660;19.338;2022-12-11T06:10:48;64.72;;;38.25;;
40951;SDS011;26682;51.660;19.338;2022-12-11T06:14:23;63.13;;;35.63;;
40951;SDS011;26682;51.660;19.338;2022-12-11T06:16:10;65.28;;;35.17;;
40951;SDS011;26682;51.660;19.338;2022-12-11T06:17:57;60.25;;;35.47;;
40951;SDS011;26682;51.660;19.338;2022-12-11T06:19:44;62.70;;;38.05;;
40951;SDS011;26682;51.660;19.338;2022-12-11T06:21:31;60.60;;;34.73;;
40951;SDS011;26682;51.660;19.338;2022-12-11T06:23:19;68.60;;;38.15;;
40951;SDS011;26682;51.660;19.338;2022-12-11T06:25:06;57.25;;;34.40;;
40951;SDS011;26682;51.660;19.338;2022-12-11T06:26:55;61.70;;;36.83;;
40951;SDS011;26682;51.660;19.338;2022-12-11T06:28:42;62.53;;;35.10;;
40951;SDS011;26682;51.660;19.338;2022-12-11T06:30:30;67.20;;;36.15;;
40951;SDS011;26682;51.660;19.338;2022-12-11T06:32:24;104.18;;;45.58;;
40951;SDS011;26682;51.660;19.338;2022-12-11T06:34:12;105.35;;;44.78;;
40951;SDS011;26682;51.660;19.338;2022-12-11T06:36:00;141.68;;;52.42;;
40951;SDS011;26682;51.660;19.338;2022-12-11T06:37:48;153.20;;;54.90;;
40951;SDS011;26682;51.660;19.338;2022-12-11T06:39:35;116.75;;;48.47;;
40951;SDS011;26682;51.660;19.338;2022-12-11T06:41:23;85.97;;;40.03;;
40951;SDS011;26682;51.660;19.338;2022-12-11T06:43:10;181.90;;;60.80;;
40951;SDS011;26682;51.660;19.338;2022-12-11T06:44:57;141.75;;;53.42;;
40951;SDS011;26682;51.660;19.338;2022-12-11T06:48:32;57.03;;;27.05;;
40951;SDS011;26682;51.660;19.338;2022-12-11T06:52:08;115.82;;;49.97;;
40951;SDS011;26682;51.660;19.338;2022-12-11T06:54:02;126.22;;;52.47;;
40951;SDS011;26682;51.660;19.338;2022-12-11T06:55:49;101.95;;;46.67;;
40951;SDS011;26682;51.660;19.338;2022-12-11T06:57:36;88.78;;;44.92;;
40951;SDS011;26682;51.660;19.338;2022-12-11T06:59:23;86.37;;;43.73;;
40951;SDS011;26682;51.660;19.338;2022-12-11T07:01:18;84.65;;;45.45;;
40951;SDS011;26682;51.660;19.338;2022-12-11T07:03:05;84.07;;;45.15;;
40951;SDS011;26682;51.660;19.338;2022-12-11T07:04:53;76.13;;;44.40;;
40951;SDS011;26682;51.660;19.338;2022-12-11T07:08:28;68.88;;;38.47;;
40951;SDS011;26682;51.660;19.338;2022-12-11T07:10:15;67.00;;;36.13;;
40951;SDS011;26682;51.660;19.338;2022-12-11T07:12:03;61.05;;;35.05;;
40951;SDS011;26682;51.660;19.338;2022-12-11T07:13:51;61.75;;;34.80;;
40951;SDS011;26682;51.660;19.338;2022-12-11T07:15:38;63.73;;;34.50;;
40951;SDS011;26682;51.660;19.338;2022-12-11T07:17:27;55.92;;;31.25;;
40951;SDS011;26682;51.660;19.338;2022-12-11T07:19:15;65.32;;;35.03;;
40951;SDS011;26682;51.660;19.338;2022-12-11T07:21:02;63.35;;;34.30;;
40951;SDS011;26682;51.660;19.338;2022-12-11T07:22:50;56.85;;;30.63;;
40951;SDS011;26682;51.660;19.338;2022-12-11T07:24:40;58.90;;;31.98;;
40951;SDS011;26682;51.660;19.338;2022-12-11T07:26:27;63.55;;;35.67;;
40951;SDS011;26682;51.660;19.338;2022-12-11T07:28:20;56.65;;;31.85;;
40951;SDS011;26682;51.660;19.338;2022-12-11T07:30:08;63.40;;;35.90;;
40951;SDS011;26682;51.660;19.338;2022-12-11T07:31:56;55.80;;;33.08;;
40951;SDS011;26682;51.660;19.338;2022-12-11T07:33:43;60.38;;;33.28;;
40951;SDS011;26682;51.660;19.338;2022-12-11T07:35:33;64.97;;;36.88;;
40951;SDS011;26682;51.660;19.338;2022-12-11T07:37:20;60.28;;;30.90;;
40951;SDS011;26682;51.660;19.338;2022-12-11T07:39:09;64.40;;;34.50;;
40951;SDS011;26682;51.660;19.338;2022-12-11T07:41:01;62.40;;;35.20;;
40951;SDS011;26682;51.660;19.338;2022-12-11T07:42:51;59.67;;;33.85;;
40951;SDS011;26682;51.660;19.338;2022-12-11T07:44:38;47.05;;;26.55;;
40951;SDS011;26682;51.660;19.338;2022-12-11T07:46:26;59.17;;;32.72;;
40951;SDS011;26682;51.660;19.338;2022-12-11T07:48:15;57.72;;;31.33;;
40951;SDS011;26682;51.660;19.338;2022-12-11T07:50:03;56.70;;;31.58;;
40951;SDS011;26682;51.660;19.338;2022-12-11T07:51:50;68.88;;;37.58;;
40951;SDS011;26682;51.660;19.338;2022-12-11T07:53:37;73.05;;;38.05;;
40951;SDS011;26682;51.660;19.338;2022-12-11T07:55:25;51.22;;;29.00;;
40951;SDS011;26682;51.660;19.338;2022-12-11T07:57:12;64.13;;;35.25;;
40951;SDS011;26682;51.660;19.338;2022-12-11T07:59:00;65.78;;;35.78;;
40951;SDS011;26682;51.660;19.338;2022-12-11T08:00:49;57.78;;;32.60;;
40951;SDS011;26682;51.660;19.338;2022-12-11T08:02:37;57.90;;;32.40;;
40951;SDS011;26682;51.660;19.338;2022-12-11T08:04:25;61.85;;;34.25;;
40951;SDS011;26682;51.660;19.338;2022-12-11T08:06:12;63.85;;;35.22;;
40951;SDS011;26682;51.660;19.338;2022-12-11T08:09:47;95.07;;;49.90;;
40951;SDS011;26682;51.660;19.338;2022-12-11T08:11:34;58.93;;;35.33;;
40951;SDS011;26682;51.660;19.338;2022-12-11T08:15:09;56.65;;;30.20;;
40951;SDS011;26682;51.660;19.338;2022-12-11T08:16:57;59.00;;;32.60;;
40951;SDS011;26682;51.660;19.338;2022-12-11T08:18:46;55.58;;;31.92;;
40951;SDS011;26682;51.660;19.338;2022-12-11T08:20:33;62.20;;;33.55;;
40951;SDS011;26682;51.660;19.338;2022-12-11T08:22:22;54.45;;;32.90;;
40951;SDS011;26682;51.660;19.338;2022-12-11T08:24:10;53.13;;;30.10;;
40951;SDS011;26682;51.660;19.338;2022-12-11T08:25:57;60.67;;;35.13;;
40951;SDS011;26682;51.660;19.338;2022-12-11T08:27:44;58.58;;;34.80;;
40951;SDS011;26682;51.660;19.338;2022-12-11T08:29:31;55.67;;;32.55;;
40951;SDS011;26682;51.660;19.338;2022-12-11T08:31:19;53.65;;;31.60;;
40951;SDS011;26682;51.660;19.338;2022-12-11T08:33:07;53.92;;;30.40;;
40951;SDS011;26682;51.660;19.338;2022-12-11T08:34:55;50.35;;;30.35;;
40951;SDS011;26682;51.660;19.338;2022-12-11T08:36:42;51.13;;;30.10;;
40951;SDS011;26682;51.660;19.338;2022-12-11T08:38:30;52.33;;;30.67;;
40951;SDS011;26682;51.660;19.338;2022-12-11T08:40:17;73.40;;;40.00;;
40951;SDS011;26682;51.660;19.338;2022-12-11T08:42:04;53.75;;;31.88;;
40951;SDS011;26682;51.660;19.338;2022-12-11T08:43:54;48.40;;;29.40;;
40951;SDS011;26682;51.660;19.338;2022-12-11T08:45:43;49.17;;;29.77;;
40951;SDS011;26682;51.660;19.338;2022-12-11T08:47:31;62.03;;;33.05;;
40951;SDS011;26682;51.660;19.338;2022-12-11T08:49:18;48.78;;;26.52;;
40951;SDS011;26682;51.660;19.338;2022-12-11T08:51:06;45.10;;;27.15;;
40951;SDS011;26682;51.660;19.338;2022-12-11T08:52:56;50.00;;;27.23;;
40951;SDS011;26682;51.660;19.338;2022-12-11T08:54:44;53.33;;;27.65;;
40951;SDS011;26682;51.660;19.338;2022-12-11T08:56:31;50.97;;;29.73;;
40951;SDS011;26682;51.660;19.338;2022-12-11T08:58:18;44.47;;;25.23;;
40951;SDS011;26682;51.660;19.338;2022-12-11T09:00:11;44.92;;;25.40;;
40951;SDS011;26682;51.660;19.338;2022-12-11T09:01:59;43.47;;;26.20;;
40951;SDS011;26682;51.660;19.338;2022-12-11T09:03:47;45.65;;;25.38;;
40951;SDS011;26682;51.660;19.338;2022-12-11T09:05:36;43.63;;;26.00;;
40951;SDS011;26682;51.660;19.338;2022-12-11T09:07:24;49.15;;;29.10;;
40951;SDS011;26682;51.660;19.338;2022-12-11T09:09:12;46.00;;;27.25;;
40951;SDS011;26682;51.660;19.338;2022-12-11T09:11:03;47.63;;;27.45;;
40951;SDS011;26682;51.660;19.338;2022-12-11T09:12:51;45.40;;;26.98;;
40951;SDS011;26682;51.660;19.338;2022-12-11T09:14:39;45.15;;;26.48;;
40951;SDS011;26682;51.660;19.338;2022-12-11T09:16:27;43.63;;;25.05;;
40951;SDS011;26682;51.660;19.338;2022-12-11T09:18:14;47.92;;;28.17;;
40951;SDS011;26682;51.660;19.338;2022-12-11T09:20:02;51.17;;;29.13;;
40951;SDS011;26682;51.660;19.338;2022-12-11T09:21:50;83.90;;;42.15;;
40951;SDS011;26682;51.660;19.338;2022-12-11T09:23:38;49.10;;;28.17;;
40951;SDS011;26682;51.660;19.338;2022-12-11T09:25:25;42.92;;;26.20;;
40951;SDS011;26682;51.660;19.338;2022-12-11T09:27:13;47.13;;;28.08;;
40951;SDS011;26682;51.660;19.338;2022-12-11T09:29:01;54.97;;;30.15;;
40951;SDS011;26682;51.660;19.338;2022-12-11T09:30:50;51.50;;;29.20;;
40951;SDS011;26682;51.660;19.338;2022-12-11T09:32:38;43.22;;;26.42;;
40951;SDS011;26682;51.660;19.338;2022-12-11T09:34:25;45.05;;;25.65;;
40951;SDS011;26682;51.660;19.338;2022-12-11T09:36:15;41.72;;;26.35;;
40951;SDS011;26682;51.660;19.338;2022-12-11T09:38:02;42.33;;;25.80;;
40951;SDS011;26682;51.660;19.338;2022-12-11T09:39:49;45.55;;;26.85;;
40951;SDS011;26682;51.660;19.338;2022-12-11T09:41:38;47.95;;;29.33;;
40951;SDS011;26682;51.660;19.338;2022-12-11T09:44:31;52.05;;;29.98;;
40951;SDS011;26682;51.660;19.338;2022-12-11T09:46:11;43.33;;;25.92;;
40951;SDS011;26682;51.660;19.338;2022-12-11T09:48:00;51.65;;;27.67;;
40951;SDS011;26682;51.660;19.338;2022-12-11T09:49:49;61.17;;;36.25;;
40951;SDS011;26682;51.660;19.338;2022-12-11T09:51:45;61.08;;;33.85;;
40951;SDS011;26682;51.660;19.338;2022-12-11T09:53:37;46.47;;;28.30;;
40951;SDS011;26682;51.660;19.338;2022-12-11T09:55:27;54.70;;;31.88;;
40951;SDS011;26682;51.660;19.338;2022-12-11T09:57:38;66.45;;;37.35;;
40951;SDS011;26682;51.660;19.338;2022-12-11T09:59:40;59.42;;;35.03;;
40951;SDS011;26682;51.660;19.338;2022-12-11T10:04:14;42.75;;;26.55;;
40951;SDS011;26682;51.660;19.338;2022-12-11T10:06:06;48.03;;;28.05;;
40951;SDS011;26682;51.660;19.338;2022-12-11T10:08:11;56.97;;;32.17;;
40951;SDS011;26682;51.660;19.338;2022-12-11T10:12:10;47.70;;;27.90;;
40951;SDS011;26682;51.660;19.338;2022-12-11T10:18:17;93.35;;;51.65;;
40951;SDS011;26682;51.660;19.338;2022-12-11T10:20:22;76.38;;;42.72;;
40951;SDS011;26682;51.660;19.338;2022-12-11T10:22:19;55.00;;;33.92;;
40951;SDS011;26682;51.660;19.338;2022-12-11T10:26:38;42.30;;;24.83;;
40951;SDS011;26682;51.660;19.338;2022-12-11T10:28:25;33.90;;;21.77;;
40951;SDS011;26682;51.660;19.338;2022-12-11T10:30:15;38.00;;;22.40;;
40951;SDS011;26682;51.660;19.338;2022-12-11T10:32:21;38.28;;;23.67;;
40951;SDS011;26682;51.660;19.338;2022-12-11T10:34:11;46.03;;;26.98;;
40951;SDS011;26682;51.660;19.338;2022-12-11T10:36:03;45.03;;;26.30;;
40951;SDS011;26682;51.660;19.338;2022-12-11T10:37:54;35.80;;;22.00;;
40951;SDS011;26682;51.660;19.338;2022-12-11T10:39:54;41.72;;;23.27;;
40951;SDS011;26682;51.660;19.338;2022-12-11T10:41:43;44.13;;;26.42;;
40951;SDS011;26682;51.660;19.338;2022-12-11T10:43:36;40.75;;;24.60;;
40951;SDS011;26682;51.660;19.338;2022-12-11T10:45:28;38.65;;;24.55;;
40951;SDS011;26682;51.660;19.338;2022-12-11T10:47:17;45.28;;;27.58;;
40951;SDS011;26682;51.660;19.338;2022-12-11T10:49:05;46.75;;;28.92;;
40951;SDS011;26682;51.660;19.338;2022-12-11T10:51:00;53.30;;;29.77;;
40951;SDS011;26682;51.660;19.338;2022-12-11T10:52:50;50.85;;;28.27;;
40951;SDS011;26682;51.660;19.338;2022-12-11T10:54:39;50.72;;;29.05;;
40951;SDS011;26682;51.660;19.338;2022-12-11T10:56:29;49.72;;;27.10;;
40951;SDS011;26682;51.660;19.338;2022-12-11T10:58:19;44.58;;;24.60;;
40951;SDS011;26682;51.660;19.338;2022-12-11T11:02:48;37.00;;;22.60;;
40951;SDS011;26682;51.660;19.338;2022-12-11T11:04:36;34.33;;;20.33;;
40951;SDS011;26682;51.660;19.338;2022-12-11T11:06:27;34.83;;;21.67;;
40951;SDS011;26682;51.660;19.338;2022-12-11T11:11:57;35.00;;;22.23;;
40951;SDS011;26682;51.660;19.338;2022-12-11T11:13:52;40.30;;;23.83;;
40951;SDS011;26682;51.660;19.338;2022-12-11T11:16:04;36.22;;;21.00;;
40951;SDS011;26682;51.660;19.338;2022-12-11T11:17:57;31.10;;;19.40;;
40951;SDS011;26682;51.660;19.338;2022-12-11T11:19:49;34.65;;;20.17;;
40951;SDS011;26682;51.660;19.338;2022-12-11T11:21:45;30.77;;;19.17;;
40951;SDS011;26682;51.660;19.338;2022-12-11T11:23:38;32.38;;;19.95;;
40951;SDS011;26682;51.660;19.338;2022-12-11T11:25:33;33.28;;;20.70;;
40951;SDS011;26682;51.660;19.338;2022-12-11T11:27:34;27.73;;;17.38;;